createdAt,value
2023-02-20T00:00:36.755Z,7.10
2023-02-20T00:03:04.851Z,7.43
2023-02-20T00:05:32.607Z,7.20
2023-02-20T00:08:00.570Z,7.07
2023-02-20T00:10:29.643Z,7.47
2023-02-20T00:12:57.311Z,7.70
2023-02-20T00:15:25.014Z,6.67
2023-02-20T00:17:52.941Z,6.67
2023-02-20T00:20:22.294Z,6.90
2023-02-20T00:22:50.487Z,6.23
2023-02-20T00:25:18.838Z,6.57
2023-02-20T00:27:48.147Z,5.30
2023-02-20T00:30:18.386Z,6.03
2023-02-20T00:32:47.171Z,6.40
2023-02-20T00:35:15.343Z,6.10
2023-02-20T00:37:43.084Z,5.80
2023-02-20T00:40:11.850Z,5.40
2023-02-20T00:42:39.689Z,5.83
2023-02-20T00:45:10.100Z,5.60
2023-02-20T00:47:38.793Z,6.10
2023-02-20T00:50:09.524Z,5.07
2023-02-20T00:52:39.399Z,5.10
2023-02-20T00:55:07.834Z,5.27
2023-02-20T00:57:35.745Z,5.47
2023-02-20T01:00:03.587Z,5.27
2023-02-20T01:02:32.600Z,5.43
2023-02-20T01:05:00.261Z,5.93
2023-02-20T01:07:27.970Z,5.27
2023-02-20T01:09:55.693Z,5.57
2023-02-20T01:12:23.314Z,5.50
2023-02-20T01:14:50.960Z,4.80
2023-02-20T01:17:18.636Z,5.13
2023-02-20T01:19:47.624Z,5.20
2023-02-20T01:22:15.286Z,5.03
2023-02-20T01:24:43.496Z,5.60
2023-02-20T01:27:11.308Z,5.80
2023-02-20T01:29:38.984Z,5.50
2023-02-20T01:32:06.731Z,5.47
2023-02-20T01:34:34.478Z,5.77
2023-02-20T01:37:03.455Z,5.70
2023-02-20T01:39:31.241Z,5.63
2023-02-20T01:42:01.258Z,5.33
2023-02-20T01:44:31.617Z,4.63
2023-02-20T01:47:01.315Z,4.80
2023-02-20T01:49:33.865Z,4.90
2023-02-20T01:52:09.286Z,4.57
2023-02-20T01:54:39.176Z,4.63
2023-02-20T01:57:10.695Z,4.20
2023-02-20T01:59:41.262Z,4.10
2023-02-20T02:02:09.537Z,4.70
2023-02-20T02:04:40.559Z,4.87
2023-02-20T02:07:10.095Z,4.50
2023-02-20T02:09:43.324Z,4.63
2023-02-20T02:12:11.139Z,4.80
2023-02-20T02:14:38.802Z,4.20
2023-02-20T02:17:19.538Z,4.70
2023-02-20T02:20:21.516Z,4.50
2023-02-20T02:23:21.969Z,4.60
2023-02-20T02:25:57.618Z,4.87
2023-02-20T02:29:05.443Z,5.13
2023-02-20T02:32:03.482Z,4.80
2023-02-20T02:35:05.579Z,5.30
2023-02-20T02:37:40.975Z,5.13
2023-02-20T02:40:16.490Z,5.40
2023-02-20T02:42:52.534Z,5.20
2023-02-20T02:45:28.496Z,5.40
2023-02-20T02:48:01.326Z,5.63
2023-02-20T02:50:34.571Z,5.07
2023-02-20T02:53:04.085Z,6.03
2023-02-20T02:55:33.993Z,5.60
2023-02-20T02:58:02.293Z,5.13
2023-02-20T03:00:34.436Z,5.90
2023-02-20T03:03:08.847Z,6.23
2023-02-20T03:05:46.367Z,5.40
2023-02-20T03:08:31.246Z,6.23
2023-02-20T03:11:02.512Z,6.97
2023-02-20T03:13:54.395Z,6.70
2023-02-20T03:16:27.367Z,6.50
2023-02-20T03:18:58.838Z,6.97
2023-02-20T03:21:27.735Z,6.27
2023-02-20T03:24:00.907Z,6.70
2023-02-20T03:26:33.871Z,7.13
2023-02-20T03:29:06.786Z,7.33
2023-02-20T03:31:38.304Z,6.60
2023-02-20T03:34:28.340Z,6.93
2023-02-20T03:37:19.766Z,6.93
2023-02-20T03:40:10.105Z,8.30
2023-02-20T03:42:58.917Z,7.53
2023-02-20T03:45:28.998Z,7.80
2023-02-20T03:48:04.015Z,8.20
2023-02-20T03:50:31.963Z,7.70
2023-02-20T03:53:00.215Z,9.23
2023-02-20T03:55:29.457Z,7.67
2023-02-20T03:58:02.202Z,9.00
2023-02-20T04:00:32.860Z,9.60
2023-02-20T04:03:03.410Z,9.87
2023-02-20T04:05:37.104Z,9.87
2023-02-20T04:08:09.806Z,10.27
2023-02-20T04:10:43.030Z,10.67
2023-02-20T04:13:13.192Z,9.73
2023-02-20T04:15:42.804Z,11.90
2023-02-20T04:18:13.037Z,10.53
2023-02-20T04:20:41.179Z,11.70
2023-02-20T04:23:13.938Z,12.73
2023-02-20T04:25:46.348Z,10.77
2023-02-20T04:28:16.535Z,12.40
2023-02-20T04:30:44.952Z,11.63
2023-02-20T04:33:13.576Z,12.57
2023-02-20T04:35:41.808Z,12.00
2023-02-20T04:38:10.344Z,12.50
2023-02-20T04:40:38.536Z,11.97
2023-02-20T04:43:07.711Z,12.30
2023-02-20T04:45:35.484Z,12.50
2023-02-20T04:48:03.209Z,11.07
2023-02-20T04:50:33.184Z,12.43
2023-02-20T04:53:01.580Z,10.60
2023-02-20T04:55:29.788Z,11.40
2023-02-20T04:57:58.450Z,11.73
2023-02-20T05:00:27.947Z,11.60
2023-02-20T05:02:56.371Z,11.90
2023-02-20T05:05:26.538Z,12.23
2023-02-20T05:07:56.238Z,12.17
2023-02-20T05:10:25.534Z,12.60
2023-02-20T05:12:54.254Z,14.03
2023-02-20T05:15:22.144Z,13.67
2023-02-20T05:17:51.208Z,14.07
2023-02-20T05:20:19.904Z,13.93
2023-02-20T05:22:47.159Z,13.87
2023-02-20T05:25:15.370Z,12.83
2023-02-20T05:27:43.512Z,13.83
2023-02-20T05:30:12.385Z,13.77
2023-02-20T05:32:40.096Z,13.10
2023-02-20T05:35:09.500Z,12.30
2023-02-20T05:37:37.201Z,11.73
2023-02-20T05:40:05.761Z,10.23
2023-02-20T05:42:33.415Z,10.00
2023-02-20T05:45:02.226Z,9.90
2023-02-20T05:47:29.918Z,11.30
2023-02-20T05:49:57.628Z,11.60
2023-02-20T05:52:26.652Z,12.20
2023-02-20T05:54:54.465Z,12.00
2023-02-20T05:57:22.208Z,10.27
2023-02-20T05:59:49.867Z,10.10
2023-02-20T06:02:17.579Z,8.33
2023-02-20T06:04:45.313Z,7.57
2023-02-20T06:07:13.181Z,7.77
2023-02-20T06:09:44.387Z,7.30
2023-02-20T06:12:14.590Z,8.67
2023-02-20T06:14:42.287Z,8.10
2023-02-20T06:17:10.020Z,7.70
2023-02-20T06:19:37.701Z,7.90
2023-02-20T06:22:05.393Z,8.17
2023-02-20T06:24:33.102Z,6.80
2023-02-20T06:27:02.138Z,6.53
2023-02-20T06:29:34.706Z,6.23
2023-02-20T06:32:02.593Z,6.00
2023-02-20T06:34:33.259Z,5.53
2023-02-20T06:37:02.983Z,5.63
2023-02-20T06:39:31.057Z,4.73
2023-02-20T06:41:58.729Z,5.17
2023-02-20T06:44:27.926Z,5.00
2023-02-20T06:46:55.703Z,5.70
2023-02-20T06:49:23.374Z,5.30
2023-02-20T06:51:54.450Z,4.70
2023-02-20T06:54:22.632Z,4.73
2023-02-20T06:56:51.181Z,5.13
2023-02-20T06:59:19.231Z,4.83
2023-02-20T07:01:48.292Z,5.33
2023-02-20T07:04:22.245Z,5.10
2023-02-20T07:06:50.271Z,5.60
2023-02-20T07:09:19.121Z,5.23
2023-02-20T07:11:47.218Z,5.90
2023-02-20T07:14:14.909Z,5.37
2023-02-20T07:16:42.610Z,5.70
2023-02-20T07:19:11.659Z,6.37
2023-02-20T07:21:39.640Z,6.07
2023-02-20T07:24:08.296Z,6.30
2023-02-20T07:26:37.308Z,5.77
2023-02-20T07:29:05.057Z,5.57
2023-02-20T07:31:32.888Z,5.00
2023-02-20T07:34:00.639Z,5.93
2023-02-20T07:36:29.692Z,6.63
2023-02-20T07:38:58.944Z,7.00
2023-02-20T07:41:29.533Z,6.10
2023-02-20T07:43:57.461Z,6.50
2023-02-20T07:46:25.503Z,6.67
2023-02-20T07:48:54.542Z,7.00
2023-02-20T07:51:22.221Z,7.07
2023-02-20T07:53:53.223Z,7.67
2023-02-20T07:56:22.232Z,7.53
2023-02-20T07:58:50.717Z,6.73
2023-02-20T08:01:20.625Z,6.57
2023-02-20T08:03:53.145Z,7.40
2023-02-20T08:06:21.682Z,7.40
2023-02-20T08:08:52.513Z,7.97
2023-02-20T08:11:25.236Z,7.13
2023-02-20T08:13:58.554Z,8.30
2023-02-20T08:16:27.182Z,9.03
2023-02-20T08:18:55.497Z,9.00
2023-02-20T08:21:26.729Z,7.87
2023-02-20T08:23:56.019Z,9.27
2023-02-20T08:26:24.476Z,9.97
2023-02-20T08:28:52.951Z,9.77
2023-02-20T08:31:31.550Z,10.60
2023-02-20T08:34:00.556Z,10.53
2023-02-20T08:36:28.974Z,11.33
2023-02-20T08:39:00.187Z,9.93
2023-02-20T08:41:28.517Z,10.27
2023-02-20T08:43:56.825Z,13.37
2023-02-20T08:46:25.056Z,12.97
2023-02-20T08:48:53.534Z,11.77
2023-02-20T08:51:22.588Z,12.90
2023-02-20T08:53:50.485Z,13.10
2023-02-20T08:56:27.324Z,13.80
2023-02-20T08:58:55.769Z,13.50
2023-02-20T09:01:25.750Z,13.87
2023-02-20T09:03:53.848Z,13.87
2023-02-20T09:06:21.784Z,15.73
2023-02-20T09:08:49.593Z,15.20
2023-02-20T09:11:17.613Z,15.13
2023-02-20T09:13:48.005Z,14.80
2023-02-20T09:16:17.344Z,14.47
2023-02-20T09:18:45.743Z,15.90
2023-02-20T09:21:17.300Z,14.87
2023-02-20T09:23:45.662Z,16.03
2023-02-20T09:26:14.977Z,16.10
2023-02-20T09:28:47.156Z,17.50
2023-02-20T09:31:15.048Z,18.07
2023-02-20T09:33:50.889Z,17.73
2023-02-20T09:36:19.442Z,16.77
2023-02-20T09:38:47.578Z,17.87
2023-02-20T09:41:27.396Z,17.03
2023-02-20T09:44:07.302Z,18.20
2023-02-20T09:46:35.732Z,17.17
2023-02-20T09:49:08.129Z,17.47
2023-02-20T09:51:39.843Z,18.87
2023-02-20T09:54:11.895Z,17.53
2023-02-20T09:56:43.321Z,19.27
2023-02-20T09:59:17.709Z,18.03
2023-02-20T10:01:54.554Z,18.00
2023-02-20T10:04:26.440Z,16.77
2023-02-20T10:06:58.991Z,17.03
2023-02-20T10:09:27.204Z,17.83
2023-02-20T10:12:08.836Z,16.27
2023-02-20T10:15:04.363Z,16.63
2023-02-20T10:17:40.719Z,16.97
2023-02-20T10:20:14.366Z,15.87
2023-02-20T10:22:54.539Z,17.07
2023-02-20T10:25:29.436Z,17.17
2023-02-20T10:28:04.344Z,17.97
2023-02-20T10:30:36.357Z,17.03
2023-02-20T10:33:16.934Z,17.00
2023-02-20T10:35:49.022Z,16.60
2023-02-20T10:38:22.769Z,15.77
2023-02-20T10:41:10.347Z,17.00
2023-02-20T10:43:53.765Z,16.07
2023-02-20T10:46:49.216Z,16.03
2023-02-20T10:49:25.724Z,16.77
2023-02-20T10:52:04.143Z,16.50
2023-02-20T10:54:42.384Z,17.63
2023-02-20T10:57:16.300Z,15.30
2023-02-20T10:59:58.309Z,16.13
2023-02-20T11:02:35.313Z,16.93
2023-02-20T11:05:06.829Z,15.17
2023-02-20T11:07:34.847Z,17.07
2023-02-20T11:10:03.245Z,16.70
2023-02-20T11:12:35.732Z,19.53
2023-02-20T11:15:10.058Z,19.10
2023-02-20T11:17:48.384Z,19.37
2023-02-20T11:20:46.210Z,17.80
2023-02-20T11:23:36.511Z,20.10
2023-02-20T11:26:30.641Z,20.73
2023-02-20T11:29:15.111Z,21.70
2023-02-20T11:31:44.108Z,20.33
2023-02-20T11:34:26.539Z,19.47
2023-02-20T11:37:19.037Z,20.63
2023-02-20T11:40:03.362Z,22.40
2023-02-20T11:42:38.210Z,21.43
2023-02-20T11:45:20.015Z,22.60
2023-02-20T11:48:12.716Z,17.40
2023-02-20T11:50:43.911Z,20.10
2023-02-20T11:53:21.660Z,22.63
2023-02-20T11:56:32.993Z,25.47
2023-02-20T11:59:39.832Z,21.53
2023-02-20T12:02:59.889Z,20.57
2023-02-20T12:05:56.333Z,24.30
2023-02-20T12:08:42.694Z,22.40
2023-02-20T12:11:14.445Z,22.07
2023-02-20T12:13:44.366Z,22.93
2023-02-20T12:16:52.460Z,21.83
2023-02-20T12:19:27.641Z,23.17
2023-02-20T12:22:19.325Z,22.50
2023-02-20T12:25:11.911Z,19.37
2023-02-20T12:27:56.360Z,24.60
2023-02-20T12:30:43.071Z,23.00
2023-02-20T12:33:26.097Z,22.80
2023-02-20T12:36:01.258Z,22.03
2023-02-20T12:38:44.973Z,22.17
2023-02-20T12:41:27.284Z,21.83
2023-02-20T12:44:13.607Z,22.37
2023-02-20T12:46:52.423Z,21.23
2023-02-20T12:49:41.721Z,23.20
2023-02-20T12:52:28.453Z,22.27
2023-02-20T12:55:07.083Z,20.00
2023-02-20T12:57:49.785Z,19.70
2023-02-20T13:00:32.228Z,21.23
2023-02-20T13:03:08.238Z,20.50
2023-02-20T13:05:39.440Z,20.30
2023-02-20T13:08:13.670Z,21.40
2023-02-20T13:10:54.397Z,20.80
2023-02-20T13:13:36.959Z,20.43
2023-02-20T13:16:11.284Z,18.07
2023-02-20T13:18:48.074Z,17.63
2023-02-20T13:21:21.525Z,17.67
2023-02-20T13:23:53.250Z,17.27
2023-02-20T13:26:48.702Z,15.90
2023-02-20T13:29:18.387Z,18.57
2023-02-20T13:31:49.720Z,17.77
2023-02-20T13:34:37.911Z,19.00
2023-02-20T13:37:07.929Z,15.73
2023-02-20T13:39:45.190Z,19.03
2023-02-20T13:42:30.609Z,16.50
2023-02-20T13:44:59.698Z,13.87
2023-02-20T13:47:38.146Z,14.13
2023-02-20T13:50:34.310Z,14.27
2023-02-20T13:53:15.648Z,12.73
2023-02-20T13:55:44.129Z,13.77
2023-02-20T13:58:16.359Z,12.20
2023-02-20T14:00:52.489Z,13.00
2023-02-20T14:03:24.688Z,12.17
2023-02-20T14:06:18.959Z,12.83
2023-02-20T14:08:48.594Z,13.53
2023-02-20T14:11:25.387Z,11.63
2023-02-20T14:13:57.919Z,12.60
2023-02-20T14:16:30.636Z,11.20
2023-02-20T14:19:06.002Z,11.67
2023-02-20T14:21:35.860Z,11.60
2023-02-20T14:24:19.527Z,12.90
2023-02-20T14:26:48.392Z,13.03
2023-02-20T14:29:25.930Z,12.30
2023-02-20T14:31:56.039Z,10.30
2023-02-20T14:34:36.673Z,12.23
2023-02-20T14:37:15.354Z,11.90
2023-02-20T14:39:58.271Z,11.33
2023-02-20T14:42:28.138Z,10.87
2023-02-20T14:45:12.657Z,11.53
2023-02-20T14:47:59.306Z,11.20
2023-02-20T14:50:35.482Z,9.60
2023-02-20T14:53:17.090Z,10.83
2023-02-20T14:55:52.723Z,9.00
2023-02-20T14:58:23.793Z,9.07
2023-02-20T15:00:56.636Z,8.93
2023-02-20T15:07:33.019Z,8.60
2023-02-20T15:10:06.234Z,9.87
2023-02-20T15:12:37.505Z,9.23
2023-02-20T15:15:08.778Z,8.57
2023-02-20T15:17:57.536Z,9.13
2023-02-20T15:20:42.894Z,8.70
2023-02-20T15:23:35.603Z,9.97
2023-02-20T15:30:24.029Z,10.70
2023-02-20T15:32:58.013Z,9.97
2023-02-20T15:35:34.745Z,10.00
2023-02-20T15:38:32.322Z,9.30
2023-02-20T15:41:18.950Z,10.97
2023-02-20T15:43:50.675Z,10.17
2023-02-20T15:46:20.519Z,10.70
2023-02-20T15:48:50.103Z,10.10
2023-02-20T15:51:26.119Z,9.87
2023-02-20T15:53:58.262Z,10.47
2023-02-20T15:56:35.933Z,9.47
2023-02-20T15:59:09.642Z,10.30
2023-02-20T16:01:37.820Z,8.23
2023-02-20T16:04:29.553Z,9.03
2023-02-20T16:07:02.862Z,8.50
2023-02-20T16:09:53.437Z,9.67
2023-02-20T16:12:48.807Z,8.60
2023-02-20T16:15:18.590Z,9.80
2023-02-20T16:17:46.560Z,7.90
2023-02-20T16:20:19.682Z,7.70
2023-02-20T16:22:48.048Z,7.10
2023-02-20T16:25:18.611Z,7.47
2023-02-20T16:27:47.719Z,8.07
2023-02-20T16:30:32.248Z,8.00
2023-02-20T16:33:02.271Z,8.00
2023-02-20T16:35:32.447Z,7.83
2023-02-20T16:38:08.771Z,7.67
2023-02-20T16:40:36.712Z,6.63
2023-02-20T16:43:05.425Z,6.40
2023-02-20T16:45:33.831Z,7.53
2023-02-20T16:48:02.052Z,6.90
2023-02-20T16:50:40.472Z,6.33
2023-02-20T16:53:16.790Z,6.43
2023-02-20T16:55:49.514Z,7.57
2023-02-20T16:58:23.138Z,7.20
2023-02-20T17:01:15.370Z,7.40
2023-02-20T17:03:46.812Z,7.07
2023-02-20T17:07:13.208Z,7.50
2023-02-20T17:10:24.326Z,8.30
2023-02-20T17:13:01.543Z,7.00
2023-02-20T17:15:32.794Z,7.47
2023-02-20T17:18:09.013Z,6.90
2023-02-20T17:20:44.571Z,7.60
2023-02-20T17:23:36.600Z,6.47
2023-02-20T17:26:13.877Z,6.53
2023-02-20T17:28:56.291Z,6.17
2023-02-20T17:31:47.307Z,7.50
2023-02-20T17:34:17.329Z,6.40
2023-02-20T17:36:49.362Z,7.23
2023-02-20T17:39:22.597Z,9.93
2023-02-20T17:41:51.600Z,7.80
2023-02-20T17:44:25.678Z,8.93
2023-02-20T17:46:59.188Z,8.03
2023-02-20T17:49:46.571Z,7.03
2023-02-20T17:52:28.825Z,7.40
2023-02-20T17:54:57.066Z,6.80
2023-02-20T17:57:26.565Z,7.90
2023-02-20T17:59:58.826Z,6.80
2023-02-20T18:02:27.202Z,6.33
2023-02-20T18:05:23.716Z,6.13
2023-02-20T18:08:20.155Z,7.50
2023-02-20T18:10:49.710Z,7.70
2023-02-20T18:13:21.184Z,7.17
2023-02-20T18:16:32.818Z,7.20
2023-02-20T18:22:37.385Z,6.27
2023-02-20T18:25:07.712Z,6.87
2023-02-20T18:27:51.410Z,6.97
2023-02-20T18:30:45.337Z,6.83
2023-02-20T18:34:21.509Z,7.30
2023-02-20T18:37:23.132Z,7.03
2023-02-20T18:40:16.985Z,7.50
2023-02-20T18:43:05.400Z,7.33
2023-02-20T18:45:44.884Z,7.93
2023-02-20T18:48:42.173Z,8.20
2023-02-20T18:51:25.317Z,8.50
2023-02-20T18:54:57.088Z,8.30
2023-02-20T18:57:37.574Z,8.03
2023-02-20T19:01:10.588Z,8.90
2023-02-20T19:04:08.429Z,8.80
2023-02-20T19:15:03.682Z,9.00
2023-02-20T19:17:58.850Z,9.17
2023-02-20T19:20:30.538Z,8.60
2023-02-20T19:23:00.753Z,10.13
2023-02-20T19:25:28.963Z,8.27
2023-02-20T19:28:08.456Z,8.73
2023-02-20T19:31:00.286Z,9.47
2023-02-20T19:33:43.957Z,10.23
2023-02-20T19:36:15.253Z,8.77
2023-02-20T19:39:03.740Z,10.47
2023-02-20T19:41:35.306Z,10.70
2023-02-20T19:44:07.903Z,10.10
2023-02-20T19:46:49.016Z,10.97
2023-02-20T19:49:23.094Z,12.43
2023-02-20T19:55:31.555Z,11.90
2023-02-20T20:01:29.259Z,12.30
2023-02-20T20:03:58.461Z,11.20
2023-02-20T20:06:28.094Z,12.10
2023-02-20T20:09:11.313Z,12.67
2023-02-20T20:11:40.391Z,11.60
2023-02-20T20:14:08.839Z,11.53
2023-02-20T20:16:41.404Z,11.93
2023-02-20T20:19:10.160Z,11.47
2023-02-20T20:21:45.488Z,12.27
2023-02-20T20:24:16.069Z,12.50
2023-02-20T20:26:52.859Z,13.73
2023-02-20T20:30:06.710Z,11.63
2023-02-20T20:32:44.348Z,13.00
2023-02-20T20:35:12.200Z,13.43
2023-02-20T20:37:40.153Z,12.87
2023-02-20T20:40:09.252Z,13.00
2023-02-20T20:42:36.917Z,14.50
2023-02-20T20:45:08.972Z,14.27
2023-02-20T20:47:37.782Z,13.77
2023-02-20T20:50:09.362Z,14.33
2023-02-20T20:52:37.434Z,14.80
2023-02-20T20:55:05.724Z,14.97
2023-02-20T20:57:35.698Z,15.23
2023-02-20T21:00:05.403Z,15.40
2023-02-20T21:02:33.053Z,12.07
2023-02-20T21:05:10.679Z,14.23
2023-02-20T21:07:40.714Z,17.47
2023-02-20T21:10:09.344Z,16.07
2023-02-20T21:12:37.165Z,15.40
2023-02-20T21:15:05.839Z,15.70
2023-02-20T21:17:34.200Z,15.50
2023-02-20T21:20:05.005Z,19.07
2023-02-20T21:22:32.736Z,16.47
2023-02-20T21:25:02.167Z,18.23
2023-02-20T21:27:29.936Z,18.00
2023-02-20T21:29:57.659Z,19.97
2023-02-20T21:32:26.621Z,17.80
2023-02-20T21:34:54.507Z,20.00
2023-02-20T21:37:22.400Z,18.37
2023-02-20T21:39:50.072Z,20.33
2023-02-20T21:42:36.683Z,20.30
2023-02-20T21:45:04.980Z,19.03
2023-02-20T21:47:32.661Z,22.20
2023-02-20T21:50:00.299Z,19.57
2023-02-20T21:52:28.446Z,20.50
2023-02-20T21:54:56.116Z,17.30
2023-02-20T21:57:26.510Z,22.50
2023-02-20T21:59:53.159Z,21.33
2023-02-20T22:02:21.106Z,21.87
2023-02-20T22:04:47.948Z,23.07
2023-02-20T22:07:33.255Z,22.80
2023-02-20T22:10:18.750Z,21.77
2023-02-20T22:13:05.296Z,18.53
2023-02-20T22:15:50.706Z,20.93
2023-02-20T22:18:36.249Z,20.23
2023-02-20T22:21:21.562Z,22.40
2023-02-20T22:24:07.132Z,23.10
2023-02-20T22:26:52.392Z,20.77
2023-02-20T22:29:38.976Z,19.73
2023-02-20T22:32:24.703Z,22.03
2023-02-20T22:35:12.248Z,21.47
2023-02-20T22:37:57.815Z,26.00
2023-02-20T22:40:43.535Z,20.20
2023-02-20T22:43:28.564Z,21.10
2023-02-20T22:46:15.318Z,23.03
2023-02-20T22:49:00.818Z,21.63
2023-02-20T22:51:46.277Z,20.97
2023-02-20T22:54:31.597Z,19.33
2023-02-20T22:57:16.869Z,22.70
2023-02-20T23:00:02.352Z,21.40
2023-02-20T23:02:49.276Z,21.03
2023-02-20T23:05:34.589Z,19.03
2023-02-20T23:08:20.597Z,20.30
2023-02-20T23:11:06.033Z,20.17
2023-02-20T23:13:51.545Z,18.87
2023-02-20T23:16:37.929Z,19.80
2023-02-20T23:19:26.044Z,21.23
2023-02-20T23:22:12.324Z,18.70
2023-02-20T23:24:57.680Z,21.33
2023-02-20T23:27:43.041Z,18.80
2023-02-20T23:30:29.428Z,21.57
2023-02-20T23:33:14.697Z,18.77
2023-02-20T23:36:01.459Z,18.33
2023-02-20T23:38:46.999Z,19.47
2023-02-20T23:41:32.321Z,20.00
2023-02-20T23:44:17.666Z,20.33
2023-02-20T23:47:03.424Z,20.00
2023-02-20T23:49:48.876Z,20.30
2023-02-20T23:52:35.660Z,20.33
2023-02-20T23:55:21.010Z,21.13
2023-02-20T23:58:06.471Z,24.07
